Time;durP1;ratioP1;P1;durP2;ratioP2;P2;SDS_P1;SDS_P2;PMS_P1;PMS_P2;Temp;Humidity;BMP_temperature;BMP_pressure;BME280_temperature;BME280_humidity;BME280_pressure;Samples;Min_cycle;Max_cycle;Signal;HPM_P1;HPM_P2
2021/09/08 00:01:12;;;;;;;16.20;12.50;;;18.20;99.90;;;;;;4989580;28;20232;-85
2021/09/08 00:03:37;;;;;;;14.63;11.33;;;18.20;99.90;;;;;;4989688;28;20302;-85
2021/09/08 00:06:03;;;;;;;15.00;13.13;;;18.10;99.90;;;;;;5006165;28;20173;-85
2021/09/08 00:08:29;;;;;;;18.87;13.57;;;18.20;99.90;;;;;;4989953;28;20488;-85
2021/09/08 00:10:55;;;;;;;24.03;15.03;;;18.00;99.90;;;;;;5007127;28;20167;-85
2021/09/08 00:13:21;;;;;;;26.33;16.90;;;18.00;99.90;;;;;;5006391;28;20170;-85
2021/09/08 00:15:47;;;;;;;28.43;17.67;;;17.90;99.90;;;;;;4989386;28;20190;-85
2021/09/08 00:18:13;;;;;;;26.17;17.90;;;17.90;99.90;;;;;;4989727;28;20178;-85
2021/09/08 00:20:39;;;;;;;28.87;17.60;;;17.90;99.90;;;;;;5005518;28;20511;-85
2021/09/08 00:23:04;;;;;;;25.80;17.40;;;17.90;99.90;;;;;;5006483;28;20174;-85
2021/09/08 00:25:30;;;;;;;24.67;17.20;;;17.90;99.90;;;;;;4988909;28;20170;-85
2021/09/08 00:27:56;;;;;;;30.13;18.00;;;17.80;99.90;;;;;;4989509;28;20166;-85
2021/09/08 00:30:22;;;;;;;24.17;15.50;;;17.90;99.90;;;;;;4973515;28;20162;-85
2021/09/08 00:32:48;;;;;;;26.97;18.27;;;17.80;99.90;;;;;;5009155;28;20146;-84
2021/09/08 00:35:13;;;;;;;23.60;16.70;;;17.80;99.90;;;;;;5012962;28;20146;-85
2021/09/08 00:37:40;;;;;;;21.60;17.57;;;17.80;99.90;;;;;;5008214;28;20167;-85
2021/09/08 00:40:08;;;;;;;22.13;17.27;;;17.80;99.90;;;;;;5007247;28;20193;-85
2021/09/08 00:42:34;;;;;;;30.80;19.37;;;17.80;99.90;;;;;;5004974;28;20413;-85
2021/09/08 00:45:00;;;;;;;23.07;15.00;;;17.70;99.90;;;;;;5007056;28;20409;-85
2021/09/08 00:47:26;;;;;;;30.77;18.10;;;17.70;99.90;;;;;;5006647;28;20724;-85
2021/09/08 00:49:52;;;;;;;20.00;16.10;;;17.60;99.90;;;;;;4989596;28;20210;-85
2021/09/08 00:52:18;;;;;;;22.87;15.30;;;17.50;99.90;;;;;;4989079;28;20233;-85
2021/09/08 00:54:47;;;;;;;19.77;15.37;;;17.50;99.90;;;;;;5004672;28;20170;-86
2021/09/08 00:57:17;;;;;;;24.43;16.13;;;17.50;99.90;;;;;;5005860;28;20424;-85
2021/09/08 00:59:44;;;;;;;22.30;15.27;;;17.50;99.90;;;;;;5006667;28;20417;-85
2021/09/08 01:02:11;;;;;;;23.10;16.23;;;17.40;99.90;;;;;;5006886;28;20445;-85
2021/09/08 01:04:36;;;;;;;22.57;16.00;;;17.40;99.90;;;;;;4973803;28;20453;-85
2021/09/08 01:07:04;;;;;;;19.50;14.90;;;17.40;99.90;;;;;;5006887;28;20413;-85
2021/09/08 01:09:30;;;;;;;22.13;15.50;;;17.40;99.90;;;;;;4973773;28;20670;-86
2021/09/08 01:11:56;;;;;;;16.67;14.83;;;17.40;99.90;;;;;;4973602;28;20898;-85
2021/09/08 01:14:22;;;;;;;27.67;16.27;;;17.40;99.90;;;;;;5007543;28;20700;-85
2021/09/08 01:16:52;;;;;;;21.53;14.17;;;17.40;99.90;;;;;;5009142;28;20535;-85
2021/09/08 01:19:18;;;;;;;22.23;14.40;;;17.40;99.90;;;;;;5016430;28;20158;-85
2021/09/08 01:21:44;;;;;;;23.27;12.43;;;17.40;99.90;;;;;;5000674;28;20937;-85
2021/09/08 01:24:10;;;;;;;20.33;13.60;;;17.40;99.90;;;;;;5019161;28;20480;-85
2021/09/08 01:26:38;;;;;;;17.37;12.53;;;17.40;99.90;;;;;;5020219;28;20413;-83
2021/09/08 01:29:07;;;;;;;20.67;12.00;;;17.30;99.90;;;;;;4995204;28;20212;-85
2021/09/08 01:31:33;;;;;;;18.30;13.23;;;17.20;99.90;;;;;;5009598;28;20397;-85
2021/09/08 01:34:01;;;;;;;17.57;13.10;;;17.30;99.90;;;;;;5009687;28;20429;-85
2021/09/08 01:36:26;;;;;;;17.73;12.13;;;17.30;99.90;;;;;;5009121;28;20161;-83
2021/09/08 01:38:52;;;;;;;17.03;11.50;;;17.20;99.90;;;;;;5009619;28;20428;-85
2021/09/08 01:41:18;;;;;;;19.00;13.10;;;17.30;99.90;;;;;;5008107;28;20166;-85
2021/09/08 01:43:45;;;;;;;25.90;13.03;;;17.30;99.90;;;;;;5010090;28;20569;-85
2021/09/08 01:46:19;;;;;;;15.90;12.33;;;17.30;99.90;;;;;;5008633;28;20170;-85
2021/09/08 01:48:44;;;;;;;18.37;11.77;;;17.20;99.90;;;;;;5012010;28;20464;-85
2021/09/08 01:51:10;;;;;;;15.40;11.90;;;17.20;99.90;;;;;;5012523;28;20975;-83
2021/09/08 01:53:36;;;;;;;17.07;13.10;;;17.10;99.90;;;;;;5013980;28;20213;-85
2021/09/08 01:56:02;;;;;;;20.60;11.77;;;17.10;99.90;;;;;;5016431;28;20166;-85
2021/09/08 01:58:28;;;;;;;20.50;10.87;;;17.00;99.90;;;;;;5017380;28;20212;-85
2021/09/08 02:00:54;;;;;;;14.97;11.50;;;17.00;99.90;;;;;;4999170;28;20189;-85
2021/09/08 02:03:19;;;;;;;18.27;9.97;;;16.90;99.90;;;;;;5011349;28;20188;-85
2021/09/08 02:05:45;;;;;;;12.00;9.80;;;16.90;99.90;;;;;;4994494;28;20176;-85
2021/09/08 02:08:11;;;;;;;16.00;11.60;;;16.90;99.90;;;;;;5027076;28;20221;-85
2021/09/08 02:10:37;;;;;;;14.90;11.40;;;16.90;99.90;;;;;;5010684;28;20157;-85
2021/09/08 02:13:04;;;;;;;13.57;10.83;;;16.90;99.90;;;;;;5010336;28;20722;-85
2021/09/08 02:15:29;;;;;;;15.80;10.43;;;16.90;99.90;;;;;;4978008;28;20254;-84
2021/09/08 02:17:55;;;;;;;15.60;12.57;;;16.80;99.90;;;;;;5025931;28;20404;-84
2021/09/08 02:20:21;;;;;;;15.77;12.43;;;16.80;99.90;;;;;;4990964;28;20190;-84
2021/09/08 02:22:47;;;;;;;16.40;11.30;;;16.90;99.90;;;;;;5008555;28;20162;-84
2021/09/08 02:25:13;;;;;;;14.10;11.13;;;16.90;99.90;;;;;;5007213;28;20173;-84
2021/09/08 02:27:39;;;;;;;17.40;11.40;;;16.90;99.90;;;;;;5007528;28;20166;-85
2021/09/08 02:30:06;;;;;;;13.77;10.20;;;16.90;99.90;;;;;;5008361;28;20468;-85
2021/09/08 02:32:32;;;;;;;13.80;10.80;;;16.90;99.90;;;;;;5007133;28;20724;-84
2021/09/08 02:34:58;;;;;;;13.83;11.07;;;16.80;99.90;;;;;;5007390;28;20481;-84
2021/09/08 02:37:23;;;;;;;15.60;11.50;;;16.70;99.90;;;;;;4990656;28;20574;-84
2021/09/08 02:39:50;;;;;;;13.50;10.40;;;16.80;99.90;;;;;;5007586;28;20201;-84
2021/09/08 02:42:17;;;;;;;12.60;9.70;;;16.80;99.90;;;;;;5008188;28;20164;-85
2021/09/08 02:44:43;;;;;;;13.83;11.07;;;16.80;99.90;;;;;;5008045;28;20409;-84
2021/09/08 02:47:10;;;;;;;13.50;10.20;;;16.70;99.90;;;;;;5008063;28;20867;-84
2021/09/08 02:49:36;;;;;;;19.97;11.33;;;16.80;99.90;;;;;;4990981;28;20198;-85
2021/09/08 02:52:03;;;;;;;18.27;12.20;;;16.80;99.90;;;;;;5008108;28;20408;-85
2021/09/08 02:54:29;;;;;;;12.93;10.27;;;16.70;99.90;;;;;;4990614;28;20244;-84
2021/09/08 02:56:55;;;;;;;16.37;10.77;;;16.70;99.90;;;;;;5007646;28;20402;-84
2021/09/08 02:59:21;;;;;;;14.57;10.53;;;16.60;99.90;;;;;;5008662;28;20213;-84
2021/09/08 03:01:46;;;;;;;15.20;10.43;;;16.60;99.90;;;;;;5007625;28;20173;-85
2021/09/08 03:04:12;;;;;;;16.33;11.40;;;16.50;99.90;;;;;;5012552;28;20178;-82
2021/09/08 03:06:38;;;;;;;14.40;11.40;;;16.50;99.90;;;;;;5008632;28;20181;-85
2021/09/08 03:09:04;;;;;;;19.17;13.00;;;16.50;99.90;;;;;;5004909;28;20254;-84
2021/09/08 03:11:30;;;;;;;16.50;11.00;;;16.50;99.90;;;;;;5006605;28;20166;-84
2021/09/08 03:13:56;;;;;;;15.47;10.20;;;16.50;99.90;;;;;;5007036;28;20465;-85
2021/09/08 03:16:22;;;;;;;20.40;11.57;;;16.40;99.90;;;;;;5005163;28;20541;-84
2021/09/08 03:18:48;;;;;;;18.43;11.40;;;16.50;99.90;;;;;;5005354;28;20397;-84
2021/09/08 03:21:15;;;;;;;16.63;12.83;;;16.50;99.90;;;;;;5010628;28;20405;-84
2021/09/08 03:23:40;;;;;;;20.60;12.37;;;16.50;99.90;;;;;;5012973;28;20258;-84
2021/09/08 03:26:06;;;;;;;16.60;11.80;;;16.50;99.90;;;;;;5013898;28;20410;-84
2021/09/08 03:28:32;;;;;;;17.00;12.03;;;16.50;99.90;;;;;;5006327;28;20205;-85
2021/09/08 03:30:58;;;;;;;14.63;11.07;;;16.60;99.90;;;;;;4974115;28;20162;-84
2021/09/08 03:33:23;;;;;;;14.77;12.10;;;16.50;99.90;;;;;;5008998;28;20229;-84
2021/09/08 03:35:49;;;;;;;18.77;11.10;;;16.50;99.90;;;;;;5005179;28;20162;-84
2021/09/08 03:38:16;;;;;;;13.83;11.53;;;16.50;99.90;;;;;;5003979;28;20175;-85
2021/09/08 03:40:42;;;;;;;13.37;9.83;;;16.50;99.90;;;;;;5006258;28;20166;-84
2021/09/08 03:43:08;;;;;;;15.27;10.57;;;16.40;99.90;;;;;;5005070;28;20436;-84
2021/09/08 03:45:34;;;;;;;17.93;10.90;;;16.40;99.90;;;;;;4988632;28;20663;-84
2021/09/08 03:47:59;;;;;;;13.67;10.63;;;16.40;99.90;;;;;;4988564;28;20213;-84
2021/09/08 03:50:25;;;;;;;12.60;9.03;;;16.40;99.90;;;;;;4989142;28;20182;-84
2021/09/08 03:52:52;;;;;;;18.70;11.23;;;16.40;99.90;;;;;;4987864;28;20253;-84
2021/09/08 03:55:18;;;;;;;18.00;11.70;;;16.30;99.90;;;;;;5004186;28;20408;-84
2021/09/08 03:57:44;;;;;;;16.53;10.30;;;16.30;99.90;;;;;;5005999;28;20405;-84
2021/09/08 04:00:10;;;;;;;20.13;11.13;;;16.30;99.90;;;;;;5005624;28;20166;-84
2021/09/08 04:02:36;;;;;;;13.93;11.03;;;16.30;99.90;;;;;;5005392;28;20166;-84
2021/09/08 04:05:03;;;;;;;16.93;11.17;;;16.30;99.90;;;;;;5004116;28;20469;-83
2021/09/08 04:07:28;;;;;;;17.23;13.07;;;16.30;99.90;;;;;;5003866;28;20469;-84
2021/09/08 04:09:54;;;;;;;23.73;11.73;;;16.20;99.90;;;;;;5004411;28;20461;-84
2021/09/08 04:12:21;;;;;;;15.77;11.73;;;16.20;99.90;;;;;;4987091;28;20554;-84
2021/09/08 04:14:48;;;;;;;17.70;12.53;;;16.20;99.90;;;;;;5004777;28;20401;-84
2021/09/08 04:17:14;;;;;;;21.40;12.00;;;16.20;99.90;;;;;;5003601;28;20402;-84
2021/09/08 04:19:39;;;;;;;16.30;11.63;;;16.20;99.90;;;;;;4987927;28;20413;-82
2021/09/08 04:22:05;;;;;;;21.80;11.17;;;16.20;99.90;;;;;;5004929;28;20544;-84
2021/09/08 04:24:33;;;;;;;13.27;11.13;;;16.20;99.90;;;;;;5004694;28;20171;-84
2021/09/08 04:27:00;;;;;;;17.50;12.03;;;16.20;99.90;;;;;;5003444;28;20257;-83
2021/09/08 04:29:26;;;;;;;14.07;11.60;;;16.10;99.90;;;;;;4987010;28;20449;-83
2021/09/08 04:31:52;;;;;;;16.53;12.07;;;16.10;99.90;;;;;;4987029;28;20427;-84
2021/09/08 04:34:17;;;;;;;14.67;11.87;;;16.10;99.90;;;;;;5003189;28;20173;-84
2021/09/08 04:36:44;;;;;;;12.80;10.33;;;16.00;99.90;;;;;;5004063;28;20163;-84
2021/09/08 04:39:10;;;;;;;13.70;10.13;;;16.00;99.90;;;;;;5004626;28;20192;-84
2021/09/08 04:41:36;;;;;;;17.57;10.63;;;16.00;99.90;;;;;;5001593;28;20422;-83
2021/09/08 04:44:02;;;;;;;19.87;11.73;;;16.00;99.90;;;;;;4984927;28;20201;-84
2021/09/08 04:46:30;;;;;;;19.23;11.17;;;16.00;99.90;;;;;;4986224;28;20186;-84
2021/09/08 04:48:57;;;;;;;18.60;11.30;;;15.90;99.90;;;;;;4987615;28;20538;-83
2021/09/08 04:51:22;;;;;;;14.97;10.77;;;15.90;99.90;;;;;;4989129;28;20186;-83
2021/09/08 04:53:50;;;;;;;16.17;11.73;;;15.90;99.90;;;;;;4989482;28;20555;-83
2021/09/08 04:56:16;;;;;;;15.80;11.47;;;15.90;99.90;;;;;;4988947;28;20186;-83
2021/09/08 04:58:41;;;;;;;14.57;11.50;;;15.90;99.90;;;;;;4988634;28;20456;-84
2021/09/08 05:01:07;;;;;;;14.93;12.10;;;16.00;99.90;;;;;;4989010;28;20805;-84
2021/09/08 05:03:33;;;;;;;21.67;11.13;;;15.90;99.90;;;;;;4988496;28;20556;-83
2021/09/08 05:05:59;;;;;;;14.27;11.10;;;16.00;99.90;;;;;;4988630;28;20181;-84
2021/09/08 05:08:25;;;;;;;15.33;10.97;;;16.00;99.90;;;;;;4973386;28;20584;-84
2021/09/08 05:10:51;;;;;;;14.93;11.30;;;15.90;99.90;;;;;;4989169;28;20417;-84
2021/09/08 05:13:17;;;;;;;14.33;11.40;;;16.00;99.90;;;;;;4989810;28;20186;-84
2021/09/08 05:15:44;;;;;;;15.60;11.13;;;16.00;99.90;;;;;;5007517;28;20173;-83
2021/09/08 05:18:10;;;;;;;16.17;12.03;;;16.10;99.90;;;;;;5006890;28;20182;-84
2021/09/08 05:20:36;;;;;;;17.67;12.37;;;16.10;99.90;;;;;;5007053;28;20428;-84
2021/09/08 05:23:01;;;;;;;15.50;12.67;;;16.00;99.90;;;;;;5005859;28;20611;-83
2021/09/08 05:25:27;;;;;;;16.77;11.23;;;16.00;99.90;;;;;;4979908;28;20205;-84
2021/09/08 05:27:53;;;;;;;14.97;13.13;;;16.00;99.90;;;;;;5025236;28;20187;-84
2021/09/08 05:30:19;;;;;;;17.40;12.30;;;16.00;99.90;;;;;;5008835;28;20204;-84
2021/09/08 05:32:45;;;;;;;14.10;11.53;;;16.00;99.90;;;;;;5032109;28;20177;-82
2021/09/08 05:35:13;;;;;;;20.00;12.63;;;16.10;99.90;;;;;;5031391;28;20169;-83
2021/09/08 05:37:41;;;;;;;16.03;10.90;;;16.10;99.90;;;;;;5030278;28;20169;-83
2021/09/08 05:40:09;;;;;;;15.00;12.07;;;16.10;99.90;;;;;;5027488;28;20439;-83
2021/09/08 05:42:35;;;;;;;15.60;11.53;;;16.10;99.90;;;;;;5023660;28;20416;-83
2021/09/08 05:45:01;;;;;;;15.47;11.80;;;16.10;99.90;;;;;;5023725;28;20436;-84
2021/09/08 05:47:29;;;;;;;15.00;10.23;;;16.20;99.90;;;;;;5004195;28;20425;-85
2021/09/08 05:49:58;;;;;;;21.03;12.73;;;16.20;99.90;;;;;;5005300;28;20452;-84
2021/09/08 05:52:24;;;;;;;17.17;12.20;;;16.10;99.90;;;;;;4991002;28;20552;-84
2021/09/08 05:54:49;;;;;;;18.90;11.50;;;16.20;99.90;;;;;;4981761;28;20224;-84
2021/09/08 05:57:18;;;;;;;16.67;12.50;;;16.30;99.90;;;;;;5007804;28;20181;-84
2021/09/08 05:59:44;;;;;;;15.03;12.83;;;16.40;99.90;;;;;;5005614;28;20177;-84
2021/09/08 06:02:09;;;;;;;24.20;13.23;;;16.30;99.90;;;;;;5023034;28;20428;-84
2021/09/08 06:04:35;;;;;;;18.10;12.70;;;16.30;99.90;;;;;;5021815;28;20169;-84
2021/09/08 06:07:02;;;;;;;16.70;12.10;;;16.30;99.90;;;;;;4971479;28;20192;-84
2021/09/08 06:09:30;;;;;;;19.43;12.27;;;16.20;99.90;;;;;;5010537;28;20220;-84
2021/09/08 06:11:58;;;;;;;14.33;11.43;;;16.00;99.90;;;;;;4972860;28;20460;-84
2021/09/08 06:14:24;;;;;;;16.17;11.93;;;15.80;99.90;;;;;;4986076;28;20429;-84
2021/09/08 06:16:50;;;;;;;19.57;12.73;;;16.10;99.90;;;;;;5004753;28;20845;-84
2021/09/08 06:19:16;;;;;;;19.00;11.90;;;16.30;99.90;;;;;;4967719;28;20563;-84
2021/09/08 06:21:42;;;;;;;19.17;12.37;;;16.40;99.90;;;;;;4950929;28;20208;-84
2021/09/08 06:24:10;;;;;;;19.10;11.67;;;16.60;99.90;;;;;;4998837;28;20934;-84
2021/09/08 06:26:39;;;;;;;15.57;11.77;;;16.70;99.90;;;;;;4987084;28;20190;-84
2021/09/08 06:29:04;;;;;;;24.87;13.77;;;16.70;99.90;;;;;;4985753;28;20465;-84
2021/09/08 06:31:31;;;;;;;21.50;14.90;;;16.80;99.90;;;;;;4987035;28;20175;-84
2021/09/08 06:33:56;;;;;;;19.03;13.60;;;16.80;99.90;;;;;;4970735;28;20241;-84
2021/09/08 06:36:22;;;;;;;16.90;12.60;;;16.80;99.90;;;;;;4967490;28;20425;-84
2021/09/08 06:38:51;;;;;;;17.23;10.80;;;16.90;99.90;;;;;;4992302;28;20433;-84
2021/09/08 06:41:17;;;;;;;14.87;11.97;;;17.00;99.90;;;;;;4986398;28;21911;-84
2021/09/08 06:43:43;;;;;;;15.77;11.50;;;17.10;99.90;;;;;;4986163;28;20174;-84
2021/09/08 06:46:09;;;;;;;19.07;12.70;;;17.00;99.90;;;;;;4967476;28;20464;-84
2021/09/08 06:48:38;;;;;;;20.73;13.77;;;17.00;99.90;;;;;;4979134;28;20452;-84
2021/09/08 06:51:04;;;;;;;18.70;14.07;;;17.00;99.90;;;;;;4987916;28;20421;-84
2021/09/08 06:53:29;;;;;;;17.53;11.23;;;17.10;99.90;;;;;;4999850;28;20252;-84
2021/09/08 06:55:55;;;;;;;15.70;11.37;;;17.10;99.90;;;;;;5022970;28;20169;-84
2021/09/08 06:58:21;;;;;;;18.57;14.17;;;17.20;99.90;;;;;;5003863;28;20296;-84
2021/09/08 07:00:47;;;;;;;19.70;13.17;;;17.30;99.90;;;;;;5003219;28;20213;-84
2021/09/08 07:03:13;;;;;;;17.40;12.67;;;17.40;99.90;;;;;;5025253;28;20192;-84
2021/09/08 07:05:41;;;;;;;19.03;11.67;;;17.30;99.90;;;;;;5020658;28;20526;-85
2021/09/08 07:08:09;;;;;;;15.97;12.40;;;17.40;99.90;;;;;;4984031;28;20217;-85
2021/09/08 07:10:38;;;;;;;16.73;11.00;;;17.50;99.90;;;;;;4987837;28;20386;-85
2021/09/08 07:13:04;;;;;;;15.33;11.53;;;17.50;99.90;;;;;;5022284;28;20404;-84
2021/09/08 07:15:30;;;;;;;14.03;10.87;;;17.60;99.90;;;;;;5006747;28;20157;-84
2021/09/08 07:17:56;;;;;;;16.40;12.33;;;17.70;99.90;;;;;;5025677;28;20461;-85
2021/09/08 07:20:23;;;;;;;19.17;12.60;;;17.80;99.90;;;;;;5025792;28;20173;-84
2021/09/08 07:22:49;;;;;;;17.67;14.47;;;17.90;99.90;;;;;;5004149;28;20630;-84
2021/09/08 07:25:15;;;;;;;17.63;13.17;;;18.00;99.90;;;;;;4997707;28;20917;-84
2021/09/08 07:27:41;;;;;;;20.70;13.10;;;17.90;99.90;;;;;;5021538;28;20436;-84
2021/09/08 07:30:07;;;;;;;21.03;11.90;;;18.10;99.90;;;;;;5022706;28;20200;-84
2021/09/08 07:32:33;;;;;;;22.50;13.80;;;18.20;99.90;;;;;;5022592;28;20181;-85
2021/09/08 07:34:59;;;;;;;17.57;12.37;;;18.30;99.90;;;;;;5020076;28;21056;-85
2021/09/08 07:37:26;;;;;;;16.87;12.83;;;18.30;99.90;;;;;;5021795;28;20165;-85
2021/09/08 07:39:53;;;;;;;14.37;11.80;;;18.40;99.90;;;;;;5023027;28;20173;-85
2021/09/08 07:42:22;;;;;;;16.43;12.03;;;18.60;99.90;;;;;;5021562;28;20432;-85
2021/09/08 07:44:51;;;;;;;14.33;11.13;;;18.70;99.90;;;;;;5018366;28;20400;-85
2021/09/08 07:47:19;;;;;;;17.97;13.63;;;18.70;99.90;;;;;;5030638;28;20396;-85
2021/09/08 07:49:44;;;;;;;27.30;14.00;;;18.70;99.90;;;;;;5011985;28;20212;-84
2021/09/08 07:52:10;;;;;;;20.77;13.97;;;18.70;99.90;;;;;;5023782;28;20424;-85
2021/09/08 07:54:36;;;;;;;18.10;13.40;;;18.80;99.90;;;;;;5023838;28;20169;-86
2021/09/08 07:57:02;;;;;;;14.77;12.23;;;18.80;99.90;;;;;;5021238;28;20180;-84
2021/09/08 07:59:28;;;;;;;16.50;12.17;;;18.80;99.90;;;;;;5008137;28;20216;-84
2021/09/08 08:01:54;;;;;;;20.73;13.83;;;18.80;99.90;;;;;;4989451;28;20425;-84
2021/09/08 08:04:22;;;;;;;15.17;12.20;;;19.00;99.90;;;;;;5024024;28;20243;-84
2021/09/08 08:06:48;;;;;;;18.50;13.43;;;19.10;99.90;;;;;;5038563;28;20427;-85
2021/09/08 08:09:14;;;;;;;21.23;12.30;;;19.20;99.90;;;;;;5022242;28;20530;-85
2021/09/08 08:11:39;;;;;;;13.03;11.63;;;19.30;99.90;;;;;;5039744;28;20180;-85
2021/09/08 08:14:06;;;;;;;16.40;12.10;;;19.30;99.90;;;;;;5042450;28;20199;-85
2021/09/08 08:16:32;;;;;;;18.93;14.73;;;19.40;99.90;;;;;;5026598;28;20207;-85
2021/09/08 08:19:00;;;;;;;21.27;12.90;;;19.50;99.90;;;;;;5008830;28;20509;-85
2021/09/08 08:21:26;;;;;;;18.00;12.97;;;19.60;99.90;;;;;;5025151;28;20498;-85
2021/09/08 08:23:53;;;;;;;15.30;11.80;;;19.70;99.90;;;;;;4985708;28;20447;-85
2021/09/08 08:26:21;;;;;;;17.20;13.73;;;19.80;99.90;;;;;;5020729;28;20185;-85
2021/09/08 08:28:46;;;;;;;21.13;14.33;;;19.90;99.90;;;;;;5045928;28;20450;-85
2021/09/08 08:31:12;;;;;;;20.37;13.13;;;20.00;99.90;;;;;;5045721;28;20918;-85
2021/09/08 08:33:38;;;;;;;17.67;12.97;;;20.10;99.90;;;;;;5046117;28;20581;-84
2021/09/08 08:36:05;;;;;;;20.50;13.47;;;20.30;99.90;;;;;;5030920;28;20193;-84
2021/09/08 08:38:31;;;;;;;15.97;12.37;;;20.40;99.90;;;;;;5034832;28;20158;-84
2021/09/08 08:40:57;;;;;;;20.90;13.13;;;20.50;99.90;;;;;;5021753;28;20431;-82
2021/09/08 08:43:24;;;;;;;17.23;12.10;;;20.60;99.90;;;;;;5038144;28;20203;-85
2021/09/08 08:45:50;;;;;;;14.40;12.30;;;20.70;99.90;;;;;;5032498;28;20177;-85
2021/09/08 08:48:17;;;;;;;15.50;11.73;;;20.80;99.90;;;;;;5028243;28;20459;-85
2021/09/08 08:50:44;;;;;;;14.20;11.70;;;20.90;99.90;;;;;;5015227;28;20432;-85
2021/09/08 08:53:09;;;;;;;14.07;11.63;;;21.10;99.90;;;;;;5026131;28;20466;-84
2021/09/08 08:55:36;;;;;;;16.10;12.07;;;21.20;99.90;;;;;;5026768;28;20845;-85
2021/09/08 08:58:02;;;;;;;14.13;11.30;;;21.30;99.90;;;;;;5027669;28;20297;-85
2021/09/08 09:00:28;;;;;;;17.57;12.07;;;21.50;99.90;;;;;;5024819;28;20419;-85
2021/09/08 09:02:54;;;;;;;14.17;12.13;;;21.50;99.90;;;;;;5011402;28;20419;-85
2021/09/08 09:05:31;;;;;;;16.77;13.17;;;21.80;99.90;;;;;;5028812;28;20181;-85
2021/09/08 09:07:57;;;;;;;14.20;10.40;;;22.10;99.90;;;;;;5010978;28;20463;-85
2021/09/08 09:10:26;;;;;;;15.10;12.07;;;22.20;99.90;;;;;;5028454;28;20495;-85
2021/09/08 09:12:53;;;;;;;11.40;10.03;;;22.30;99.90;;;;;;5031160;28;20440;-85
2021/09/08 09:15:21;;;;;;;19.10;12.80;;;22.40;99.90;;;;;;5031725;28;20436;-85
2021/09/08 09:17:47;;;;;;;13.57;11.50;;;22.70;99.90;;;;;;5026992;28;20421;-85
2021/09/08 09:20:20;;;;;;;14.30;11.40;;;22.80;99.90;;;;;;5006942;28;20421;-85
2021/09/08 09:22:52;;;;;;;15.53;12.67;;;22.90;99.90;;;;;;5009124;28;20445;-85
2021/09/08 09:25:22;;;;;;;16.17;11.13;;;23.00;99.90;;;;;;5027315;28;20428;-85
2021/09/08 09:27:51;;;;;;;24.73;12.17;;;23.20;99.90;;;;;;5011097;28;20431;-85
2021/09/08 09:30:20;;;;;;;14.07;10.67;;;23.50;99.90;;;;;;5010899;28;20455;-85
2021/09/08 09:32:48;;;;;;;15.37;11.63;;;23.50;99.90;;;;;;5021969;28;20429;-85
2021/09/08 09:35:18;;;;;;;16.70;11.13;;;22.60;99.90;;;;;;5025151;28;20420;-85
2021/09/08 09:37:49;;;;;;;12.87;10.27;;;22.30;99.90;;;;;;5026114;28;20412;-84
2021/09/08 09:40:18;;;;;;;13.27;10.40;;;22.90;99.90;;;;;;5025877;28;20424;-85
2021/09/08 09:42:46;;;;;;;13.20;10.90;;;23.40;99.90;;;;;;5026002;28;20416;-85
2021/09/08 09:45:16;;;;;;;15.37;12.00;;;23.90;99.90;;;;;;5023364;28;20400;-86
2021/09/08 09:47:45;;;;;;;15.97;10.57;;;24.20;99.90;;;;;;5004803;28;20757;-86
2021/09/08 09:50:17;;;;;;;12.17;10.90;;;24.70;99.90;;;;;;5021519;28;20539;-84
2021/09/08 09:52:47;;;;;;;11.80;8.93;;;24.90;99.90;;;;;;5020955;28;20799;-84
2021/09/08 09:55:14;;;;;;;16.57;9.53;;;25.10;99.90;;;;;;5007433;28;20431;-85
2021/09/08 09:57:41;;;;;;;11.27;9.97;;;25.00;99.90;;;;;;5021881;28;20427;-85
2021/09/08 10:00:07;;;;;;;11.00;9.70;;;24.70;99.90;;;;;;5020655;28;20456;-87
2021/09/08 10:02:34;;;;;;;13.23;10.93;;;24.40;99.90;;;;;;5019210;28;20451;-85
2021/09/08 10:05:01;;;;;;;13.87;9.37;;;24.50;99.90;;;;;;5020783;28;20985;-84
2021/09/08 10:08:10;;;;;;;10.83;9.73;;;24.00;99.90;;;;;;4984314;28;20433;-86
2021/09/08 10:10:42;;;;;;;10.23;9.13;;;23.90;99.90;;;;;;4936282;29;20431;-86
2021/09/08 10:13:17;;;;;;;14.00;11.90;;;24.80;99.90;;;;;;4938933;29;20503;-85
2021/09/08 10:15:45;;;;;;;13.70;10.10;;;25.40;99.90;;;;;;4935589;29;20423;-85
2021/09/08 10:18:12;;;;;;;15.10;10.57;;;25.00;99.90;;;;;;4902839;29;20433;-85
2021/09/08 10:20:38;;;;;;;12.37;9.47;;;25.30;99.90;;;;;;4903140;29;20457;-84
2021/09/08 10:23:08;;;;;;;13.47;10.50;;;26.00;99.90;;;;;;4902252;29;20520;-85
2021/09/08 10:25:34;;;;;;;13.03;10.40;;;26.80;99.90;;;;;;4895225;29;20577;-85
2021/09/08 10:28:14;;;;;;;14.87;10.77;;;27.30;99.90;;;;;;4904539;29;20433;-83
2021/09/08 10:30:47;;;;;;;10.50;9.17;;;27.40;99.90;;;;;;4885478;29;20438;-83
2021/09/08 10:33:36;;;;;;;10.70;9.17;;;27.50;99.90;;;;;;4863766;29;20438;-84
2021/09/08 10:36:11;;;;;;;8.50;7.40;;;28.20;99.90;;;;;;4846582;29;20523;-83
2021/09/08 10:39:07;;;;;;;9.80;8.40;;;28.60;99.90;;;;;;4811608;29;20512;-85
2021/09/08 10:41:46;;;;;;;14.70;8.10;;;27.80;99.90;;;;;;4833840;29;20512;-85
2021/09/08 10:44:13;;;;;;;10.30;9.20;;;28.10;99.90;;;;;;4815413;29;20495;-85
2021/09/08 10:46:53;;;;;;;9.37;8.57;;;27.30;99.90;;;;;;4820378;29;20915;-85
2021/09/08 10:49:50;;;;;;;9.63;8.73;;;26.90;99.90;;;;;;4837263;29;20474;-85
2021/09/08 10:52:42;;;;;;;9.20;7.87;;;28.30;99.90;;;;;;4832437;29;20440;-85
2021/09/08 10:55:16;;;;;;;10.00;7.73;;;27.60;98.70;;;;;;4825125;29;20435;-85
2021/09/08 10:57:55;;;;;;;8.47;7.60;;;27.70;98.00;;;;;;4832756;29;20445;-85
2021/09/08 11:00:31;;;;;;;8.23;7.50;;;28.80;96.00;;;;;;4836075;29;20452;-85
2021/09/08 11:02:57;;;;;;;7.90;7.20;;;29.10;93.80;;;;;;4835675;29;20515;-85
2021/09/08 11:05:23;;;;;;;11.53;10.40;;;28.70;91.30;;;;;;4856525;29;20550;-85
2021/09/08 11:07:50;;;;;;;7.30;6.67;;;29.50;90.60;;;;;;4858485;29;20964;-85
2021/09/08 11:10:32;;;;;;;9.03;6.63;;;29.10;88.70;;;;;;4944798;28;20225;-85
2021/09/08 11:13:00;;;;;;;6.80;6.30;;;27.80;85.10;;;;;;4981374;28;20182;-84
2021/09/08 11:15:33;;;;;;;7.10;6.50;;;27.70;87.40;;;;;;4980778;28;20434;-85
2021/09/08 11:18:01;;;;;;;7.10;6.07;;;27.60;83.80;;;;;;4984792;28;20441;-85
2021/09/08 11:20:32;;;;;;;7.53;6.80;;;27.50;83.30;;;;;;4982714;28;20442;-84
2021/09/08 11:23:08;;;;;;;6.50;5.90;;;27.70;84.00;;;;;;4966078;28;20433;-85
2021/09/08 11:25:36;;;;;;;7.43;6.73;;;27.70;80.80;;;;;;4984004;28;20901;-85
2021/09/08 11:28:03;;;;;;;6.37;5.80;;;27.80;78.70;;;;;;5013734;28;20939;-84
2021/09/08 11:30:32;;;;;;;6.87;5.60;;;28.10;78.70;;;;;;5024241;28;20439;-85
2021/09/08 11:33:19;;;;;;;6.80;6.10;;;28.00;78.20;;;;;;5025577;28;20424;-85
2021/09/08 11:35:50;;;;;;;5.80;5.30;;;29.00;77.40;;;;;;5006729;28;20408;-85
2021/09/08 11:38:26;;;;;;;6.38;5.75;;;28.80;74.90;;;;;;5002207;28;20188;-85
2021/09/08 11:41:01;;;;;;;6.78;6.03;;;29.60;76.60;;;;;;4986046;28;20188;-84
2021/09/08 11:43:40;;;;;;;8.80;6.80;;;30.00;72.20;;;;;;5022557;28;20208;-84
2021/09/08 11:46:13;;;;;;;8.52;6.38;;;30.80;76.10;;;;;;5023356;28;20177;-84
2021/09/08 11:48:41;;;;;;;7.05;6.43;;;29.20;70.70;;;;;;5007841;28;20251;-85
2021/09/08 11:51:10;;;;;;;6.15;5.60;;;30.20;69.70;;;;;;5015931;28;20184;-84
2021/09/08 11:53:36;;;;;;;7.20;6.05;;;29.10;67.70;;;;;;5027708;28;20278;-85
2021/09/08 11:56:17;;;;;;;6.75;6.15;;;29.20;69.10;;;;;;5001776;28;20192;-85
2021/09/08 11:58:44;;;;;;;7.43;5.72;;;29.30;70.80;;;;;;5033688;28;20176;-84
2021/09/08 12:01:13;;;;;;;8.13;5.65;;;28.80;70.50;;;;;;5008417;28;20180;-84
2021/09/08 12:03:47;;;;;;;6.95;6.35;;;29.00;70.00;;;;;;4970508;28;20224;-85
2021/09/08 12:06:19;;;;;;;7.45;6.75;;;29.60;69.30;;;;;;5016076;28;20185;-85
2021/09/08 12:08:50;;;;;;;6.80;6.20;;;29.00;68.70;;;;;;5022711;28;20248;-85
2021/09/08 12:11:29;;;;;;;7.60;6.97;;;29.30;69.40;;;;;;5025688;28;20204;-85
2021/09/08 12:13:55;;;;;;;6.47;5.97;;;28.20;70.80;;;;;;5022364;28;20192;-85
2021/09/08 12:16:38;;;;;;;7.53;5.85;;;28.50;71.60;;;;;;5023021;28;20551;-83
2021/09/08 12:19:14;;;;;;;7.30;6.60;;;29.20;70.50;;;;;;5026369;28;20173;-87
2021/09/08 12:21:41;;;;;;;9.27;6.18;;;28.80;68.90;;;;;;4994375;28;20181;-85
2021/09/08 12:24:19;;;;;;;9.30;8.52;;;28.50;70.70;;;;;;5002119;28;20192;-83
2021/09/08 12:26:47;;;;;;;7.20;6.50;;;29.80;68.30;;;;;;5024673;28;20172;-84
2021/09/08 12:29:13;;;;;;;6.53;5.93;;;28.40;70.50;;;;;;5017929;28;20320;-83
2021/09/08 12:32:00;;;;;;;6.95;6.25;;;29.30;72.70;;;;;;5023349;28;20191;-84
2021/09/08 12:34:43;;;;;;;6.50;5.93;;;29.00;72.00;;;;;;5004684;28;20168;-85